Time;durP1;ratioP1;P1;durP2;ratioP2;P2;SDS_P1;SDS_P2;PMS_P1;PMS_P2;Temp;Humidity;BMP_temperature;BMP_pressure;BME280_temperature;BME280_humidity;BME280_pressure;Samples;Min_cycle;Max_cycle;Signal;HPM_P1;HPM_P2
2024/01/19 00:00:10;;;;;;;9.30;6.53;;;;;;;;;;5070858;28;20035;-61
2024/01/19 00:02:35;;;;;;;12.57;7.88;;;;;;;;;;5071526;28;20071;-63
2024/01/19 00:05:01;;;;;;;12.00;7.47;;;;;;;;;;5070241;28;20069;-64
2024/01/19 00:07:26;;;;;;;9.43;7.18;;;;;;;;;;5072090;28;20028;-63
2024/01/19 00:09:51;;;;;;;7.97;6.50;;;;;;;;;;5069991;28;20094;-63
2024/01/19 00:12:16;;;;;;;12.45;7.40;;;;;;;;;;5071962;28;20770;-63
2024/01/19 00:14:42;;;;;;;12.95;7.22;;;;;;;;;;5070242;28;20033;-63
2024/01/19 00:17:07;;;;;;;9.75;6.65;;;;;;;;;;5071080;28;20280;-63
2024/01/19 00:19:32;;;;;;;11.33;8.37;;;;;;;;;;5069965;28;20043;-63
2024/01/19 00:21:58;;;;;;;10.35;6.07;;;;;;;;;;5071623;28;20526;-63
2024/01/19 00:24:23;;;;;;;12.30;7.13;;;;;;;;;;5069898;28;20032;-63
2024/01/19 00:26:48;;;;;;;11.20;8.30;;;;;;;;;;5071016;28;20435;-64
2024/01/19 00:29:13;;;;;;;9.07;6.40;;;;;;;;;;5070672;28;20878;-64
2024/01/19 00:31:38;;;;;;;13.23;6.27;;;;;;;;;;5071204;28;20488;-64
2024/01/19 00:34:04;;;;;;;7.40;6.70;;;;;;;;;;5070356;28;20454;-63
2024/01/19 00:36:29;;;;;;;9.90;7.35;;;;;;;;;;5071328;28;20446;-63
2024/01/19 00:38:54;;;;;;;9.18;7.00;;;;;;;;;;5069502;28;20050;-63
2024/01/19 00:41:20;;;;;;;8.82;8.02;;;;;;;;;;5071636;28;20028;-63
2024/01/19 00:43:45;;;;;;;9.05;6.65;;;;;;;;;;5068806;28;20028;-63
2024/01/19 00:46:11;;;;;;;25.83;7.28;;;;;;;;;;5070991;28;20020;-63
2024/01/19 00:48:36;;;;;;;9.98;7.15;;;;;;;;;;5069291;28;20530;-63
2024/01/19 00:51:01;;;;;;;12.73;7.65;;;;;;;;;;5071477;28;20012;-63
2024/01/19 00:53:26;;;;;;;12.13;8.02;;;;;;;;;;5071107;28;20127;-63
2024/01/19 00:55:52;;;;;;;13.27;7.53;;;;;;;;;;5069387;28;20676;-63
2024/01/19 00:58:17;;;;;;;13.55;7.55;;;;;;;;;;5071508;28;20059;-63
2024/01/19 01:00:42;;;;;;;18.85;9.18;;;;;;;;;;5069244;28;20380;-63
2024/01/19 01:03:08;;;;;;;7.20;6.03;;;;;;;;;;5071368;28;20025;-63
2024/01/19 01:05:34;;;;;;;12.20;6.82;;;;;;;;;;5069423;28;20996;-63
2024/01/19 01:07:59;;;;;;;10.15;6.85;;;;;;;;;;5070844;28;20495;-63
2024/01/19 01:10:24;;;;;;;12.50;6.40;;;;;;;;;;5069577;28;20032;-63
2024/01/19 01:12:49;;;;;;;12.83;6.30;;;;;;;;;;5071026;28;20419;-63
2024/01/19 01:15:14;;;;;;;11.63;6.87;;;;;;;;;;5069176;28;20457;-63
2024/01/19 01:17:39;;;;;;;13.63;8.07;;;;;;;;;;5070442;28;20480;-63
2024/01/19 01:20:05;;;;;;;10.15;7.45;;;;;;;;;;5069660;28;20550;-63
2024/01/19 01:22:32;;;;;;;9.85;7.78;;;;;;;;;;5070736;28;20016;-63
2024/01/19 01:24:57;;;;;;;12.88;7.63;;;;;;;;;;5069597;28;20029;-63
2024/01/19 01:27:22;;;;;;;12.30;8.10;;;;;;;;;;5070806;28;20036;-63
2024/01/19 01:29:47;;;;;;;11.00;8.70;;;;;;;;;;5068856;28;21174;-63
2024/01/19 01:32:13;;;;;;;15.88;10.52;;;;;;;;;;5070795;28;20435;-63
2024/01/19 01:34:38;;;;;;;8.75;7.78;;;;;;;;;;5069415;28;20101;-63
2024/01/19 01:37:04;;;;;;;15.65;9.52;;;;;;;;;;5069838;28;20021;-63
2024/01/19 01:39:29;;;;;;;14.23;9.82;;;;;;;;;;5069176;28;20464;-64
2024/01/19 01:41:54;;;;;;;9.73;8.60;;;;;;;;;;5070682;28;20464;-64
2024/01/19 01:44:19;;;;;;;16.25;9.95;;;;;;;;;;5068868;28;20020;-64
2024/01/19 01:46:44;;;;;;;16.50;7.85;;;;;;;;;;5070388;28;20027;-64
2024/01/19 01:49:10;;;;;;;18.47;9.77;;;;;;;;;;5070942;28;20031;-64
2024/01/19 01:51:35;;;;;;;13.40;9.15;;;;;;;;;;5068749;28;20541;-64
2024/01/19 01:54:02;;;;;;;17.70;11.70;;;;;;;;;;5070512;28;20063;-64
2024/01/19 01:56:27;;;;;;;10.80;9.48;;;;;;;;;;5069149;28;20040;-64
2024/01/19 01:58:53;;;;;;;10.23;8.43;;;;;;;;;;5070150;28;20081;-63
2024/01/19 02:01:18;;;;;;;26.98;9.73;;;;;;;;;;5072746;28;20064;-63
2024/01/19 02:03:44;;;;;;;13.37;9.57;;;;;;;;;;5074525;28;20484;-65
2024/01/19 02:06:09;;;;;;;15.30;10.20;;;;;;;;;;5071690;28;20454;-65
2024/01/19 02:08:34;;;;;;;10.32;9.32;;;;;;;;;;5073911;28;20026;-65
2024/01/19 02:10:59;;;;;;;9.27;8.38;;;;;;;;;;5073020;28;20118;-64
2024/01/19 02:13:25;;;;;;;13.77;9.57;;;;;;;;;;5074485;28;20052;-64
2024/01/19 02:15:51;;;;;;;19.33;10.85;;;;;;;;;;5072010;28;20454;-64
2024/01/19 02:18:16;;;;;;;10.75;9.65;;;;;;;;;;5074419;28;20036;-64
2024/01/19 02:20:42;;;;;;;10.75;8.82;;;;;;;;;;5072680;28;20028;-64
2024/01/19 02:23:12;;;;;;;16.30;8.70;;;;;;;;;;5073732;28;20042;-64
2024/01/19 02:25:37;;;;;;;16.05;8.32;;;;;;;;;;5072518;28;20439;-64
2024/01/19 02:28:02;;;;;;;18.08;10.25;;;;;;;;;;5074218;28;20107;-64
2024/01/19 02:30:29;;;;;;;12.63;9.18;;;;;;;;;;5072245;28;20051;-64
2024/01/19 02:32:54;;;;;;;12.57;9.40;;;;;;;;;;5074145;28;20031;-64
2024/01/19 02:35:19;;;;;;;9.70;8.43;;;;;;;;;;5072297;28;20500;-64
2024/01/19 02:37:44;;;;;;;16.73;10.15;;;;;;;;;;5073234;28;20463;-64
2024/01/19 02:40:09;;;;;;;10.20;8.25;;;;;;;;;;5072086;28;20048;-64
2024/01/19 02:42:35;;;;;;;11.88;8.93;;;;;;;;;;5073802;28;20020;-64
2024/01/19 02:45:01;;;;;;;11.23;10.20;;;;;;;;;;5072021;28;20159;-64
2024/01/19 02:47:27;;;;;;;9.85;8.85;;;;;;;;;;5073664;28;20054;-64
2024/01/19 02:49:53;;;;;;;10.38;9.38;;;;;;;;;;5072093;28;20036;-64
2024/01/19 02:52:18;;;;;;;13.50;12.07;;;;;;;;;;5073344;28;20172;-64
2024/01/19 02:54:43;;;;;;;11.47;9.60;;;;;;;;;;5072127;28;20111;-64
2024/01/19 02:57:08;;;;;;;12.37;11.27;;;;;;;;;;5073365;28;20433;-64
2024/01/19 02:59:33;;;;;;;14.33;9.63;;;;;;;;;;5070359;28;21039;-64
2024/01/19 03:01:58;;;;;;;11.45;8.82;;;;;;;;;;5073392;28;20439;-64
2024/01/19 03:04:24;;;;;;;10.17;9.03;;;;;;;;;;5072027;28;20101;-64
2024/01/19 03:06:49;;;;;;;9.50;8.70;;;;;;;;;;5072742;28;20462;-64
2024/01/19 03:09:14;;;;;;;13.80;8.38;;;;;;;;;;5072053;28;20059;-64
2024/01/19 03:11:39;;;;;;;23.97;12.93;;;;;;;;;;5072780;28;20138;-63
2024/01/19 03:14:04;;;;;;;10.33;9.40;;;;;;;;;;5071467;28;21017;-63
2024/01/19 03:16:30;;;;;;;11.87;10.63;;;;;;;;;;5072871;28;20492;-63
2024/01/19 03:19:00;;;;;;;12.37;11.13;;;;;;;;;;5071584;28;20493;-63
2024/01/19 03:21:25;;;;;;;9.18;8.38;;;;;;;;;;5073033;28;20419;-63
2024/01/19 03:23:50;;;;;;;12.73;11.43;;;;;;;;;;5071604;28;20830;-63
2024/01/19 03:26:15;;;;;;;11.40;10.10;;;;;;;;;;5072930;28;20431;-63
2024/01/19 03:28:40;;;;;;;10.40;9.53;;;;;;;;;;5071090;28;20458;-63
2024/01/19 03:31:05;;;;;;;9.87;8.87;;;;;;;;;;5072844;28;20435;-64
2024/01/19 03:33:31;;;;;;;9.10;8.40;;;;;;;;;;5071525;28;20446;-64
2024/01/19 03:35:56;;;;;;;8.90;8.07;;;;;;;;;;5072217;28;20969;-64
2024/01/19 03:38:21;;;;;;;12.60;9.17;;;;;;;;;;5070952;28;20477;-63
2024/01/19 03:40:47;;;;;;;10.50;8.80;;;;;;;;;;5072789;28;20407;-64
2024/01/19 03:43:12;;;;;;;8.82;8.02;;;;;;;;;;5072455;28;20890;-64
2024/01/19 03:45:37;;;;;;;14.50;9.13;;;;;;;;;;5070943;28;20040;-61
2024/01/19 03:48:02;;;;;;;11.30;8.27;;;;;;;;;;5072814;28;20013;-61
2024/01/19 03:50:28;;;;;;;9.10;8.20;;;;;;;;;;5070661;28;20463;-62
2024/01/19 03:52:53;;;;;;;9.93;8.00;;;;;;;;;;5072394;28;20488;-62
2024/01/19 03:55:18;;;;;;;14.73;9.10;;;;;;;;;;5071154;28;20447;-62
2024/01/19 03:57:43;;;;;;;14.23;8.80;;;;;;;;;;5071742;28;20024;-62
2024/01/19 04:00:09;;;;;;;9.10;8.17;;;;;;;;;;5070441;28;20446;-62
2024/01/19 04:02:34;;;;;;;13.70;7.75;;;;;;;;;;5072291;28;20417;-62
2024/01/19 04:05:00;;;;;;;10.73;7.78;;;;;;;;;;5070501;28;20395;-64
2024/01/19 04:07:25;;;;;;;9.23;7.55;;;;;;;;;;5071691;28;20025;-64
2024/01/19 04:09:50;;;;;;;8.87;8.07;;;;;;;;;;5070361;28;20765;-64
2024/01/19 04:12:16;;;;;;;12.97;7.23;;;;;;;;;;5071815;28;20431;-61
2024/01/19 04:14:43;;;;;;;8.55;7.50;;;;;;;;;;5070556;28;20505;-63
2024/01/19 04:17:09;;;;;;;10.18;9.07;;;;;;;;;;5072085;28;20376;-64
2024/01/19 04:19:34;;;;;;;12.68;10.50;;;;;;;;;;5070297;28;20044;-64
2024/01/19 04:22:00;;;;;;;14.38;8.85;;;;;;;;;;5070867;28;20379;-64
2024/01/19 04:24:25;;;;;;;9.02;8.23;;;;;;;;;;5070581;28;20040;-63
2024/01/19 04:26:50;;;;;;;10.20;8.50;;;;;;;;;;5071537;28;20020;-63
2024/01/19 04:29:15;;;;;;;10.67;9.20;;;;;;;;;;5070282;28;20470;-63
2024/01/19 04:31:41;;;;;;;9.73;8.87;;;;;;;;;;5071311;28;20463;-63
2024/01/19 04:34:06;;;;;;;9.33;8.43;;;;;;;;;;5070314;28;20461;-64
2024/01/19 04:36:31;;;;;;;10.68;9.63;;;;;;;;;;5071104;28;20462;-63
2024/01/19 04:38:57;;;;;;;20.88;10.45;;;;;;;;;;5070310;28;20060;-64
2024/01/19 04:41:22;;;;;;;19.88;10.18;;;;;;;;;;5071924;28;20380;-64
2024/01/19 04:43:47;;;;;;;15.50;10.70;;;;;;;;;;5069683;28;20503;-64
2024/01/19 04:46:13;;;;;;;15.70;9.57;;;;;;;;;;5071592;28;20447;-65
2024/01/19 04:48:38;;;;;;;11.88;10.68;;;;;;;;;;5069511;28;21185;-64
2024/01/19 04:51:04;;;;;;;17.38;10.68;;;;;;;;;;5071504;28;20472;-64
2024/01/19 04:53:29;;;;;;;11.50;10.40;;;;;;;;;;5070141;28;20035;-64
2024/01/19 04:55:54;;;;;;;15.30;11.23;;;;;;;;;;5071011;28;20016;-64
2024/01/19 04:58:19;;;;;;;18.00;12.23;;;;;;;;;;5069534;28;20458;-63
2024/01/19 05:00:45;;;;;;;19.57;12.23;;;;;;;;;;5071047;28;20423;-64
2024/01/19 05:03:10;;;;;;;21.97;13.23;;;;;;;;;;5071005;28;20428;-64
2024/01/19 05:05:35;;;;;;;14.47;13.13;;;;;;;;;;5069239;28;20989;-64
2024/01/19 05:08:00;;;;;;;11.47;10.40;;;;;;;;;;5071258;28;20414;-63
2024/01/19 05:10:26;;;;;;;18.23;13.33;;;;;;;;;;5069711;28;20459;-63
2024/01/19 05:12:51;;;;;;;14.00;12.63;;;;;;;;;;5070123;28;20438;-61
2024/01/19 05:15:16;;;;;;;19.27;12.35;;;;;;;;;;5068509;28;20491;-61
2024/01/19 05:17:41;;;;;;;21.65;15.07;;;;;;;;;;5070643;28;20055;-61
2024/01/19 05:20:07;;;;;;;14.77;13.40;;;;;;;;;;5069291;28;20655;-61
2024/01/19 05:22:33;;;;;;;13.90;12.60;;;;;;;;;;5070899;28;20025;-61
2024/01/19 05:24:58;;;;;;;18.10;13.50;;;;;;;;;;5069023;28;20039;-61
2024/01/19 05:27:23;;;;;;;13.10;11.93;;;;;;;;;;5070549;28;20949;-61
2024/01/19 05:29:48;;;;;;;16.63;14.50;;;;;;;;;;5069459;28;20070;-61
2024/01/19 05:32:13;;;;;;;21.80;14.60;;;;;;;;;;5070706;28;20490;-60
2024/01/19 05:34:39;;;;;;;14.70;12.93;;;;;;;;;;5068615;28;20779;-61
2024/01/19 05:37:04;;;;;;;24.63;13.65;;;;;;;;;;5059050;28;20434;-60
2024/01/19 05:39:29;;;;;;;13.80;12.40;;;;;;;;;;5069312;28;20131;-61
2024/01/19 05:41:54;;;;;;;25.33;13.82;;;;;;;;;;5070186;28;20423;-60
2024/01/19 05:44:20;;;;;;;23.73;15.57;;;;;;;;;;5069520;28;20100;-61
2024/01/19 05:46:45;;;;;;;23.07;15.23;;;;;;;;;;5070255;28;20430;-60
2024/01/19 05:49:10;;;;;;;17.53;15.67;;;;;;;;;;5069188;28;20822;-61
2024/01/19 05:51:35;;;;;;;17.90;14.67;;;;;;;;;;5070736;28;20557;-60
2024/01/19 05:54:00;;;;;;;15.37;13.40;;;;;;;;;;5069333;28;20451;-61
2024/01/19 05:56:25;;;;;;;16.15;14.48;;;;;;;;;;5070467;28;20950;-60
2024/01/19 05:58:51;;;;;;;18.43;14.10;;;;;;;;;;5069204;28;20036;-61
2024/01/19 06:01:16;;;;;;;18.98;14.88;;;;;;;;;;5070388;28;20423;-61
2024/01/19 06:03:41;;;;;;;25.40;15.98;;;;;;;;;;5069024;28;20094;-60
2024/01/19 06:06:06;;;;;;;18.55;14.77;;;;;;;;;;5070587;28;20048;-58
2024/01/19 06:08:32;;;;;;;17.53;13.63;;;;;;;;;;5069105;28;20020;-62
2024/01/19 06:10:57;;;;;;;27.15;17.55;;;;;;;;;;5070831;28;20842;-62
2024/01/19 06:13:23;;;;;;;20.50;15.30;;;;;;;;;;5069263;28;20023;-61
2024/01/19 06:15:48;;;;;;;17.00;14.80;;;;;;;;;;5068893;28;20021;-62
2024/01/19 06:18:14;;;;;;;15.13;13.48;;;;;;;;;;5070319;28;20032;-62
2024/01/19 06:20:41;;;;;;;17.20;14.88;;;;;;;;;;5068870;28;20029;-63
2024/01/19 06:23:10;;;;;;;23.90;16.73;;;;;;;;;;5070579;28;20027;-63
2024/01/19 06:25:35;;;;;;;21.23;15.63;;;;;;;;;;5068559;28;20039;-62
2024/01/19 06:28:01;;;;;;;21.08;16.60;;;;;;;;;;5070340;28;20020;-62
2024/01/19 06:30:26;;;;;;;21.70;17.77;;;;;;;;;;5069019;28;20538;-62
2024/01/19 06:32:51;;;;;;;25.20;17.70;;;;;;;;;;5069890;28;20434;-62
2024/01/19 06:35:16;;;;;;;23.03;17.23;;;;;;;;;;5068816;28;20454;-61
2024/01/19 06:37:41;;;;;;;21.57;18.07;;;;;;;;;;5069810;28;20438;-61
2024/01/19 06:40:07;;;;;;;20.37;18.17;;;;;;;;;;5068908;28;20840;-62
2024/01/19 06:42:32;;;;;;;21.77;18.38;;;;;;;;;;5069667;28;20435;-62
2024/01/19 06:44:57;;;;;;;25.42;19.30;;;;;;;;;;5068936;28;20044;-62
2024/01/19 06:47:22;;;;;;;21.23;17.98;;;;;;;;;;5074073;28;20020;-62
2024/01/19 06:49:48;;;;;;;23.27;17.17;;;;;;;;;;5071428;28;20085;-62
2024/01/19 06:52:14;;;;;;;21.33;17.95;;;;;;;;;;5090469;28;20430;-62
2024/01/19 06:54:39;;;;;;;21.27;18.98;;;;;;;;;;5092351;28;20032;-62
2024/01/19 06:57:04;;;;;;;23.63;20.60;;;;;;;;;;5093458;28;20463;-62
2024/01/19 06:59:29;;;;;;;24.95;20.80;;;;;;;;;;5092462;28;20462;-62
2024/01/19 07:01:54;;;;;;;27.50;16.90;;;;;;;;;;5093663;28;20024;-62
2024/01/19 07:04:19;;;;;;;21.23;18.67;;;;;;;;;;5092091;28;20511;-62
2024/01/19 07:06:45;;;;;;;23.27;19.23;;;;;;;;;;5093600;28;20469;-62
2024/01/19 07:09:10;;;;;;;28.40;19.70;;;;;;;;;;5092172;28;20452;-62
2024/01/19 07:11:35;;;;;;;22.83;20.47;;;;;;;;;;5093186;28;20429;-62
2024/01/19 07:14:00;;;;;;;32.08;22.00;;;;;;;;;;5092327;28;20458;-61
2024/01/19 07:16:26;;;;;;;22.40;20.17;;;;;;;;;;5093491;28;20127;-61
2024/01/19 07:18:51;;;;;;;28.47;20.03;;;;;;;;;;5091428;28;20552;-61
2024/01/19 07:21:16;;;;;;;24.73;22.07;;;;;;;;;;5093469;28;20417;-62
2024/01/19 07:23:41;;;;;;;33.42;22.42;;;;;;;;;;5091869;28;20890;-62
2024/01/19 07:26:06;;;;;;;27.27;21.55;;;;;;;;;;5092973;28;20043;-62
2024/01/19 07:28:32;;;;;;;29.50;22.05;;;;;;;;;;5091642;28;20027;-62
2024/01/19 07:30:57;;;;;;;30.10;21.58;;;;;;;;;;5093236;28;20009;-58
2024/01/19 07:33:24;;;;;;;29.00;24.17;;;;;;;;;;5091582;28;20020;-58
2024/01/19 07:35:49;;;;;;;26.08;23.35;;;;;;;;;;5093172;28;20419;-59
2024/01/19 07:38:14;;;;;;;33.33;22.93;;;;;;;;;;5092836;28;20039;-59
2024/01/19 07:40:39;;;;;;;31.45;22.83;;;;;;;;;;5091088;28;20500;-59
2024/01/19 07:43:04;;;;;;;29.30;21.33;;;;;;;;;;5092903;28;20016;-59
2024/01/19 07:45:30;;;;;;;31.87;22.90;;;;;;;;;;5091621;28;20063;-59
2024/01/19 07:47:55;;;;;;;42.47;23.07;;;;;;;;;;5092262;28;20499;-59
2024/01/19 07:50:20;;;;;;;28.33;22.03;;;;;;;;;;5087318;28;20447;-59
2024/01/19 07:52:45;;;;;;;24.43;21.57;;;;;;;;;;5072489;28;20425;-59
2024/01/19 07:55:10;;;;;;;34.80;23.13;;;;;;;;;;5071001;28;20912;-59
2024/01/19 07:57:36;;;;;;;27.17;21.20;;;;;;;;;;5072072;28;20032;-59
2024/01/19 08:00:03;;;;;;;28.92;24.60;;;;;;;;;;5070919;28;20032;-59
2024/01/19 08:02:28;;;;;;;29.13;21.77;;;;;;;;;;5072258;28;20024;-59
2024/01/19 08:04:53;;;;;;;27.87;24.20;;;;;;;;;;5070885;28;20105;-59
2024/01/19 08:07:18;;;;;;;36.63;24.67;;;;;;;;;;5072385;28;20407;-59
2024/01/19 08:09:44;;;;;;;31.88;22.25;;;;;;;;;;5069953;28;20803;-59
2024/01/19 08:12:09;;;;;;;31.33;23.50;;;;;;;;;;5072207;28;20020;-59
2024/01/19 08:14:34;;;;;;;31.55;24.23;;;;;;;;;;5070737;28;20041;-59
2024/01/19 08:16:59;;;;;;;29.53;22.63;;;;;;;;;;5070429;28;20547;-59
2024/01/19 08:19:25;;;;;;;28.75;22.70;;;;;;;;;;5070017;28;20466;-59
2024/01/19 08:21:50;;;;;;;33.88;25.08;;;;;;;;;;5071923;28;20021;-59
2024/01/19 08:24:15;;;;;;;32.33;23.43;;;;;;;;;;5070272;28;20071;-59
2024/01/19 08:26:40;;;;;;;33.00;23.03;;;;;;;;;;5071516;28;20419;-59
2024/01/19 08:29:06;;;;;;;34.13;24.00;;;;;;;;;;5070465;28;20501;-59
2024/01/19 08:31:31;;;;;;;30.38;22.90;;;;;;;;;;5071373;28;20027;-59
2024/01/19 08:33:56;;;;;;;28.63;23.00;;;;;;;;;;5070205;28;20395;-59
2024/01/19 08:36:24;;;;;;;31.27;22.45;;;;;;;;;;5071224;28;20162;-59
2024/01/19 08:38:49;;;;;;;28.63;23.17;;;;;;;;;;5069272;28;20514;-59
2024/01/19 08:41:15;;;;;;;26.10;23.30;;;;;;;;;;5071592;28;20100;-59
2024/01/19 08:43:41;;;;;;;30.20;22.67;;;;;;;;;;5070175;28;20036;-59
2024/01/19 08:46:07;;;;;;;31.95;23.88;;;;;;;;;;5071013;28;20016;-59
2024/01/19 08:48:32;;;;;;;33.85;24.83;;;;;;;;;;5067997;28;20432;-59
2024/01/19 08:50:57;;;;;;;30.58;22.70;;;;;;;;;;5069238;28;20107;-59
2024/01/19 08:53:22;;;;;;;26.23;21.90;;;;;;;;;;5067941;28;20475;-58
2024/01/19 08:55:48;;;;;;;22.80;19.37;;;;;;;;;;5068800;28;20411;-59
2024/01/19 08:58:14;;;;;;;26.65;19.20;;;;;;;;;;5069189;28;20558;-59
2024/01/19 09:00:39;;;;;;;22.75;18.15;;;;;;;;;;5067516;28;20037;-59
2024/01/19 09:03:05;;;;;;;22.60;17.03;;;;;;;;;;5069806;28;20383;-59
2024/01/19 09:05:30;;;;;;;22.80;17.27;;;;;;;;;;5069820;28;20458;-59
2024/01/19 09:07:55;;;;;;;17.55;15.45;;;;;;;;;;5070639;28;20407;-59
2024/01/19 09:10:21;;;;;;;22.00;16.10;;;;;;;;;;5069673;28;20041;-59
2024/01/19 09:12:47;;;;;;;22.38;16.88;;;;;;;;;;5071085;28;20036;-59
2024/01/19 09:15:16;;;;;;;20.80;17.13;;;;;;;;;;5069513;28;20042;-59
2024/01/19 09:17:41;;;;;;;27.60;18.02;;;;;;;;;;5070651;28;20467;-59
2024/01/19 09:20:06;;;;;;;31.10;17.43;;;;;;;;;;5068236;28;20107;-59
2024/01/19 09:22:32;;;;;;;23.90;16.38;;;;;;;;;;5070983;28;20423;-59
2024/01/19 09:24:57;;;;;;;21.50;17.00;;;;;;;;;;5069345;28;20033;-59
2024/01/19 09:27:22;;;;;;;20.63;16.37;;;;;;;;;;5070980;28;20415;-59
2024/01/19 09:29:48;;;;;;;23.57;17.27;;;;;;;;;;5069588;28;20443;-59
2024/01/19 09:32:16;;;;;;;25.13;19.15;;;;;;;;;;5070850;28;20770;-59
2024/01/19 09:34:41;;;;;;;23.33;17.27;;;;;;;;;;5069180;28;20038;-59
2024/01/19 09:37:06;;;;;;;27.42;19.58;;;;;;;;;;5070396;28;20099;-59
2024/01/19 09:39:32;;;;;;;24.97;17.23;;;;;;;;;;5068749;28;20340;-59
2024/01/19 09:42:03;;;;;;;24.27;17.42;;;;;;;;;;5070794;28;20518;-59
2024/01/19 09:44:33;;;;;;;28.35;18.05;;;;;;;;;;5069644;28;20040;-59
2024/01/19 09:47:20;;;;;;;28.00;17.83;;;;;;;;;;5070377;28;20103;-59
2024/01/19 09:50:02;;;;;;;21.92;17.75;;;;;;;;;;5069111;28;20123;-59
2024/01/19 09:52:34;;;;;;;42.67;21.10;;;;;;;;;;5067756;28;20028;-59
2024/01/19 09:54:59;;;;;;;27.52;19.95;;;;;;;;;;5068801;28;20056;-59
2024/01/19 09:57:25;;;;;;;32.28;21.33;;;;;;;;;;5070393;28;20521;-59
2024/01/19 09:59:50;;;;;;;30.10;20.20;;;;;;;;;;5068965;28;20040;-59
2024/01/19 10:02:16;;;;;;;27.07;19.17;;;;;;;;;;5069524;28;20016;-59
2024/01/19 10:04:41;;;;;;;29.35;22.42;;;;;;;;;;5052010;28;20455;-59
2024/01/19 10:07:07;;;;;;;26.00;21.97;;;;;;;;;;5050245;28;20025;-59
2024/01/19 10:09:32;;;;;;;30.35;18.50;;;;;;;;;;5047872;28;20554;-59
2024/01/19 10:11:57;;;;;;;25.55;18.33;;;;;;;;;;5049741;28;20021;-59
2024/01/19 10:14:24;;;;;;;18.40;16.53;;;;;;;;;;5048433;28;20032;-59
2024/01/19 10:16:49;;;;;;;21.23;16.40;;;;;;;;;;5049618;28;20497;-59
2024/01/19 10:19:16;;;;;;;22.83;13.13;;;;;;;;;;5049262;28;20508;-59
2024/01/19 10:21:42;;;;;;;17.35;14.20;;;;;;;;;;5053048;28;20482;-59
2024/01/19 10:24:08;;;;;;;13.43;11.68;;;;;;;;;;5052890;28;20120;-59
2024/01/19 10:26:35;;;;;;;14.60;11.55;;;;;;;;;;5054090;28;20380;-59
2024/01/19 10:29:13;;;;;;;15.40;13.57;;;;;;;;;;5052941;28;20029;-59
2024/01/19 10:31:40;;;;;;;16.63;12.57;;;;;;;;;;5053588;28;20029;-59
2024/01/19 10:34:14;;;;;;;16.45;11.63;;;;;;;;;;5053055;28;20036;-59
2024/01/19 10:36:39;;;;;;;19.30;10.38;;;;;;;;;;5053761;28;20028;-59
2024/01/19 10:39:34;;;;;;;20.33;12.32;;;;;;;;;;5052105;28;20036;-59
2024/01/19 10:42:03;;;;;;;16.10;12.30;;;;;;;;;;5053694;28;20064;-59
2024/01/19 10:44:28;;;;;;;15.45;13.00;;;;;;;;;;5052343;28;20102;-59
2024/01/19 10:46:56;;;;;;;17.57;13.30;;;;;;;;;;5053702;28;20418;-59
2024/01/19 10:49:21;;;;;;;14.07;12.63;;;;;;;;;;5052372;28;20582;-59
2024/01/19 10:51:47;;;;;;;16.73;13.48;;;;;;;;;;5053616;28;20108;-59
2024/01/19 10:54:16;;;;;;;16.70;12.95;;;;;;;;;;5052307;28;20064;-58
2024/01/19 10:56:45;;;;;;;16.85;12.98;;;;;;;;;;5053687;28;20021;-59
2024/01/19 10:59:11;;;;;;;17.27;13.02;;;;;;;;;;5063959;28;20483;-59
2024/01/19 11:01:36;;;;;;;16.90;13.43;;;;;;;;;;5073058;28;20027;-59
2024/01/19 11:04:02;;;;;;;15.40;13.80;;;;;;;;;;5072187;28;20440;-59
2024/01/19 11:06:27;;;;;;;18.67;14.70;;;;;;;;;;5073373;28;20021;-59
2024/01/19 11:08:52;;;;;;;16.48;14.15;;;;;;;;;;5071517;28;20028;-59
2024/01/19 11:11:20;;;;;;;15.10;13.13;;;;;;;;;;5073541;28;20025;-59
2024/01/19 11:13:46;;;;;;;13.05;11.75;;;;;;;;;;5071137;28;20492;-59
2024/01/19 11:16:15;;;;;;;18.88;12.68;;;;;;;;;;5072495;28;20096;-59
2024/01/19 11:18:42;;;;;;;19.80;13.10;;;;;;;;;;5071093;28;20403;-59
2024/01/19 11:21:07;;;;;;;15.32;13.68;;;;;;;;;;5072618;28;20464;-59
2024/01/19 11:23:33;;;;;;;19.02;14.63;;;;;;;;;;5071154;28;20031;-59
2024/01/19 11:26:16;;;;;;;20.05;13.18;;;;;;;;;;5073046;28;20044;-59
2024/01/19 11:28:59;;;;;;;22.33;14.60;;;;;;;;;;5071471;28;21022;-59
2024/01/19 11:31:25;;;;;;;33.70;15.65;;;;;;;;;;5072209;28;20020;-59
2024/01/19 11:33:53;;;;;;;22.52;14.57;;;;;;;;;;5071008;28;20784;-59
2024/01/19 11:36:45;;;;;;;23.80;14.40;;;;;;;;;;5072567;28;20372;-59
2024/01/19 11:39:13;;;;;;;17.77;14.35;;;;;;;;;;5065476;28;20130;-59
2024/01/19 11:41:38;;;;;;;17.85;14.93;;;;;;;;;;5072650;28;20369;-59
2024/01/19 11:44:04;;;;;;;19.05;13.38;;;;;;;;;;5070489;28;20081;-59
2024/01/19 11:46:40;;;;;;;23.73;13.18;;;;;;;;;;5072743;28;20028;-59
2024/01/19 11:49:05;;;;;;;32.78;17.08;;;;;;;;;;5070842;28;20048;-59
2024/01/19 11:51:31;;;;;;;19.50;13.20;;;;;;;;;;5072173;28;20063;-59
2024/01/19 11:53:58;;;;;;;12.20;10.88;;;;;;;;;;5071121;28;20450;-59
2024/01/19 11:56:24;;;;;;;13.80;12.05;;;;;;;;;;5071949;28;20016;-62
2024/01/19 11:58:49;;;;;;;15.25;12.73;;;;;;;;;;5070420;28;20047;-59
2024/01/19 12:01:14;;;;;;;19.02;12.25;;;;;;;;;;5072795;28;20031;-59
2024/01/19 12:03:40;;;;;;;16.37;11.83;;;;;;;;;;5070700;28;20028;-59
2024/01/19 12:06:05;;;;;;;14.85;12.02;;;;;;;;;;5071561;28;20445;-59
2024/01/19 12:08:31;;;;;;;18.33;11.48;;;;;;;;;;5070833;28;20017;-59
2024/01/19 12:11:00;;;;;;;16.65;9.80;;;;;;;;;;5071918;28;20004;-59
2024/01/19 12:13:26;;;;;;;15.23;12.05;;;;;;;;;;5070495;28;20553;-59
2024/01/19 12:15:52;;;;;;;12.27;10.90;;;;;;;;;;5071717;28;20059;-59
2024/01/19 12:18:17;;;;;;;20.25;12.32;;;;;;;;;;5071698;28;20023;-59
2024/01/19 12:20:45;;;;;;;13.73;12.27;;;;;;;;;;5070476;28;20111;-59
2024/01/19 12:23:12;;;;;;;14.65;11.35;;;;;;;;;;5072199;28;20425;-59
2024/01/19 12:25:38;;;;;;;13.68;9.95;;;;;;;;;;5069889;28;20036;-59
2024/01/19 12:28:06;;;;;;;14.90;10.10;;;;;;;;;;5071285;28;20024;-59
2024/01/19 12:30:32;;;;;;;16.70;11.38;;;;;;;;;;5070303;28;20089;-59
2024/01/19 12:32:58;;;;;;;17.95;10.13;;;;;;;;;;5071761;28;20031;-59
2024/01/19 12:35:23;;;;;;;14.65;9.93;;;;;;;;;;5070279;28;20040;-59
2024/01/19 12:37:48;;;;;;;14.00;9.20;;;;;;;;;;5070991;28;20086;-59
2024/01/19 12:40:14;;;;;;;13.32;9.57;;;;;;;;;;5068798;28;20463;-59
2024/01/19 12:42:41;;;;;;;16.52;10.57;;;;;;;;;;5068996;28;20032;-59
2024/01/19 12:45:06;;;;;;;11.75;9.25;;;;;;;;;;5068325;28;20024;-59
2024/01/19 12:47:32;;;;;;;12.60;8.77;;;;;;;;;;5071353;28;20667;-59
2024/01/19 12:49:57;;;;;;;17.17;9.00;;;;;;;;;;5070091;28;20029;-59
2024/01/19 12:52:23;;;;;;;10.10;8.65;;;;;;;;;;5071530;28;20419;-59
2024/01/19 12:54:48;;;;;;;14.30;10.77;;;;;;;;;;5069979;28;20120;-59
2024/01/19 12:57:17;;;;;;;16.83;9.32;;;;;;;;;;5071433;28;20375;-59
2024/01/19 12:59:42;;;;;;;13.32;10.13;;;;;;;;;;5069389;28;20044;-59
2024/01/19 13:02:09;;;;;;;17.50;9.97;;;;;;;;;;5071271;28;20077;-59
2024/01/19 13:04:35;;;;;;;18.08;9.75;;;;;;;;;;5069465;28;20554;-59
2024/01/19 13:07:00;;;;;;;12.87;8.13;;;;;;;;;;5070267;28;20629;-59
2024/01/19 13:09:25;;;;;;;20.10;9.60;;;;;;;;;;5069798;28;20032;-59
2024/01/19 13:11:52;;;;;;;12.30;9.45;;;;;;;;;;5070506;28;20853;-59
2024/01/19 13:14:21;;;;;;;9.75;8.60;;;;;;;;;;5069290;28;20039;-59
2024/01/19 13:16:51;;;;;;;39.80;10.05;;;;;;;;;;5070596;28;20149;-59
2024/01/19 13:19:17;;;;;;;19.52;8.43;;;;;;;;;;5069198;28;20101;-59
2024/01/19 13:21:42;;;;;;;10.80;8.60;;;;;;;;;;5069896;28;20443;-59
2024/01/19 13:24:08;;;;;;;29.77;10.02;;;;;;;;;;5069558;28;20051;-59
2024/01/19 13:26:33;;;;;;;15.05;9.15;;;;;;;;;;5071007;28;20021;-59
2024/01/19 13:28:58;;;;;;;14.90;7.47;;;;;;;;;;5068809;28;20070;-59
2024/01/19 13:31:23;;;;;;;14.20;7.75;;;;;;;;;;5070289;28;20459;-59
2024/01/19 13:33:49;;;;;;;16.20;8.80;;;;;;;;;;5069053;28;20032;-59
2024/01/19 13:36:15;;;;;;;29.90;11.30;;;;;;;;;;5070423;28;20486;-59
2024/01/19 13:38:41;;;;;;;22.35;12.32;;;;;;;;;;5068676;28;20024;-59
2024/01/19 13:41:08;;;;;;;19.95;9.75;;;;;;;;;;5070730;28;20388;-59
2024/01/19 13:43:34;;;;;;;17.80;12.05;;;;;;;;;;5068836;28;20020;-59
2024/01/19 13:45:59;;;;;;;22.77;11.88;;;;;;;;;;5070596;28;20043;-59
2024/01/19 13:48:25;;;;;;;27.63;12.10;;;;;;;;;;5069043;28;20024;-58
2024/01/19 13:50:50;;;;;;;15.43;10.40;;;;;;;;;;5069846;28;20435;-60
2024/01/19 13:53:16;;;;;;;11.30;8.87;;;;;;;;;;5065219;28;20144;-60
2024/01/19 13:55:41;;;;;;;18.50;10.15;;;;;;;;;;5071429;28;20468;-59
2024/01/19 13:58:06;;;;;;;23.10;10.52;;;;;;;;;;5073340;28;20100;-59
2024/01/19 14:00:31;;;;;;;29.37;12.57;;;;;;;;;;5069069;28;20039;-58
2024/01/19 14:02:57;;;;;;;18.17;11.33;;;;;;;;;;5073728;28;20422;-59
2024/01/19 14:05:23;;;;;;;21.75;11.40;;;;;;;;;;5072177;28;20993;-58
2024/01/19 14:07:48;;;;;;;30.25;10.68;;;;;;;;;;5066783;28;20035;-58
2024/01/19 14:10:13;;;;;;;24.33;11.13;;;;;;;;;;5071927;28;20064;-58
2024/01/19 14:12:39;;;;;;;21.88;10.38;;;;;;;;;;5073351;28;20461;-58
2024/01/19 14:15:04;;;;;;;25.80;11.25;;;;;;;;;;5072706;28;20032;-59